createdAt,value
2019-02-09T00:00:31.936Z,100013.27
2019-02-09T00:03:33.877Z,100010.15
2019-02-09T00:06:35.953Z,99999.75
2019-02-09T00:09:37.834Z,100002.38
2019-02-09T00:12:39.772Z,100000.35
2019-02-09T00:15:41.628Z,99989.86
2019-02-09T00:18:43.610Z,99986.06
2019-02-09T00:21:45.486Z,99983.34
2019-02-09T00:24:47.461Z,99981.22
2019-02-09T00:27:49.340Z,99971.86
2019-02-09T00:30:51.346Z,99971.63
2019-02-09T00:33:53.242Z,99963.96
2019-02-09T00:36:55.140Z,99965.72
2019-02-09T00:39:57.023Z,99960.64
2019-02-09T00:42:59.030Z,99950.95
2019-02-09T00:46:01.380Z,99944.10
2019-02-09T00:49:03.354Z,99938.86
2019-02-09T00:52:06.421Z,99943.70
2019-02-09T00:55:11.440Z,99941.66
2019-02-09T00:58:13.342Z,99937.22
2019-02-09T01:01:15.327Z,99936.38
2019-02-09T01:04:17.266Z,99935.53
2019-02-09T01:07:19.274Z,99921.84
2019-02-09T01:10:21.413Z,99924.67
2019-02-09T01:13:23.329Z,99916.04
2019-02-09T01:16:26.313Z,99910.28
2019-02-09T01:19:28.253Z,99907.28
2019-02-09T01:22:30.305Z,99897.77
2019-02-09T01:25:32.159Z,99895.16
2019-02-09T01:28:34.294Z,99891.46
2019-02-09T01:31:36.292Z,99890.70
2019-02-09T01:34:38.238Z,99886.89
2019-02-09T01:37:40.214Z,99881.67
2019-02-09T01:40:42.148Z,99874.33
2019-02-09T01:43:44.137Z,99880.30
2019-02-09T01:46:46.585Z,99867.76
2019-02-09T01:49:48.507Z,99857.75
2019-02-09T01:52:50.369Z,99855.39
2019-02-09T01:55:52.270Z,99856.11
2019-02-09T01:58:54.210Z,99841.10
2019-02-09T02:01:56.161Z,99831.42
2019-02-09T02:04:58.157Z,99829.30
2019-02-09T02:08:00.197Z,99821.13
2019-02-09T02:11:02.294Z,99816.77
2019-02-09T02:14:04.439Z,99815.41
2019-02-09T02:17:06.682Z,99812.20
2019-02-09T02:20:18.189Z,99796.94
2019-02-09T02:23:20.140Z,99789.31
2019-02-09T02:26:22.119Z,99775.11
2019-02-09T02:29:24.024Z,99770.63
2019-02-09T02:32:26.073Z,99763.27
2019-02-09T02:35:28.029Z,99763.39
2019-02-09T02:38:29.974Z,99760.20
2019-02-09T02:41:31.916Z,99745.48
2019-02-09T02:44:33.906Z,99749.33
2019-02-09T02:47:37.644Z,99749.78
2019-02-09T02:50:39.599Z,99742.55
2019-02-09T02:53:41.634Z,99735.63
2019-02-09T02:56:43.556Z,99750.25
2019-02-09T02:59:45.480Z,99758.08
2019-02-09T03:02:47.537Z,99756.09
2019-02-09T03:05:49.435Z,99756.98
2019-02-09T03:08:51.450Z,99748.22
2019-02-09T03:11:53.356Z,99737.07
2019-02-09T03:14:55.375Z,99735.26
2019-02-09T03:17:57.765Z,99732.86
2019-02-09T03:20:59.683Z,99723.87
2019-02-09T03:24:01.579Z,99730.08
2019-02-09T03:27:03.483Z,99718.73
2019-02-09T03:30:08.966Z,99714.33
2019-02-09T03:33:10.918Z,99697.17
2019-02-09T03:36:12.752Z,99700.34
2019-02-09T03:39:14.743Z,99695.98
2019-02-09T03:42:16.666Z,99697.88
2019-02-09T03:45:21.410Z,99699.77
2019-02-09T03:48:24.766Z,99691.61
2019-02-09T03:51:26.689Z,99683.92
2019-02-09T03:54:28.546Z,99679.95
2019-02-09T03:57:30.477Z,99680.00
2019-02-09T04:00:32.647Z,99676.09
2019-02-09T04:03:34.670Z,99668.84
2019-02-09T04:06:36.615Z,99662.92
2019-02-09T04:09:38.595Z,99665.66
2019-02-09T04:12:40.701Z,99650.73
2019-02-09T04:15:42.861Z,99644.39
2019-02-09T04:18:44.779Z,99647.14
2019-02-09T04:21:46.700Z,99637.98
2019-02-09T04:24:48.702Z,99637.70
2019-02-09T04:27:50.815Z,99634.87
2019-02-09T04:30:52.771Z,99629.67
2019-02-09T04:33:54.742Z,99623.77
2019-02-09T04:36:56.658Z,99610.98
2019-02-09T04:39:58.551Z,99606.59
2019-02-09T04:43:01.152Z,99597.70
2019-02-09T04:46:03.226Z,99591.41
2019-02-09T04:49:05.137Z,99593.94
2019-02-09T04:52:07.638Z,99583.30
2019-02-09T04:55:15.271Z,99576.77
2019-02-09T04:58:17.222Z,99578.02
2019-02-09T05:01:19.211Z,99572.23
2019-02-09T05:04:21.207Z,99576.56
2019-02-09T05:07:23.131Z,99576.56
2019-02-09T05:10:25.594Z,99564.23
2019-02-09T05:13:27.586Z,99564.56
2019-02-09T05:16:29.560Z,99551.33
2019-02-09T05:19:31.464Z,99550.38
2019-02-09T05:22:33.415Z,99541.27
2019-02-09T05:25:35.275Z,99548.05
2019-02-09T05:28:37.198Z,99537.55
2019-02-09T05:31:39.157Z,99536.47
2019-02-09T05:34:41.125Z,99549.28
2019-02-09T05:37:43.080Z,99549.14
2019-02-09T05:40:45.167Z,99552.84
2019-02-09T05:43:47.053Z,99554.52
2019-02-09T05:46:48.959Z,99539.28
2019-02-09T05:49:50.914Z,99520.02
2019-02-09T05:52:52.830Z,99518.09
2019-02-09T05:55:54.824Z,99527.36
2019-02-09T05:58:56.861Z,99534.78
2019-02-09T06:01:58.820Z,99528.95
2019-02-09T06:05:00.724Z,99528.34
2019-02-09T06:08:03.585Z,99532.77
2019-02-09T06:11:05.647Z,99518.66
2019-02-09T06:14:07.558Z,99526.05
2019-02-09T06:17:09.513Z,99515.98
2019-02-09T06:20:14.848Z,99516.09
2019-02-09T06:23:16.787Z,99504.84
2019-02-09T06:26:18.753Z,99510.14
2019-02-09T06:29:20.681Z,99506.80
2019-02-09T06:32:22.534Z,99503.66
2019-02-09T06:35:24.911Z,99494.97
2019-02-09T06:38:26.873Z,99478.06
2019-02-09T06:41:29.039Z,99482.39
2019-02-09T06:44:30.894Z,99481.05
2019-02-09T06:47:32.773Z,99486.56
2019-02-09T06:50:34.696Z,99482.53
2019-02-09T06:53:36.604Z,99474.31
2019-02-09T06:56:38.502Z,99456.06
2019-02-09T06:59:40.472Z,99464.51
2019-02-09T07:02:42.333Z,99484.22
2019-02-09T07:05:44.356Z,99487.08
2019-02-09T07:08:46.304Z,99486.90
2019-02-09T07:11:48.421Z,99491.37
2019-02-09T07:14:50.350Z,99492.13
2019-02-09T07:17:52.243Z,99500.23
2019-02-09T07:20:54.184Z,99512.16
2019-02-09T07:23:56.068Z,99528.73
2019-02-09T07:26:58.042Z,99523.00
2019-02-09T07:29:59.961Z,99529.87
2019-02-09T07:33:02.590Z,99516.78
2019-02-09T07:36:04.803Z,99520.22
2019-02-09T07:39:07.895Z,99524.89
2019-02-09T07:42:09.823Z,99527.30
2019-02-09T07:45:18.271Z,99525.78
2019-02-09T07:48:20.216Z,99504.77
2019-02-09T07:51:22.179Z,99512.95
2019-02-09T07:54:24.104Z,99478.49
2019-02-09T07:57:26.059Z,99465.09
2019-02-09T08:00:30.651Z,99480.63
2019-02-09T08:03:32.606Z,99485.80
2019-02-09T08:06:34.510Z,99476.98
2019-02-09T08:09:36.642Z,99476.16
2019-02-09T08:12:38.693Z,99484.05
2019-02-09T08:15:40.639Z,99496.63
2019-02-09T08:18:42.544Z,99487.62
2019-02-09T08:21:44.592Z,99489.80
2019-02-09T08:24:46.520Z,99492.50
2019-02-09T08:27:49.208Z,99493.88
2019-02-09T08:30:51.302Z,99507.77
2019-02-09T08:33:53.269Z,99520.03
2019-02-09T08:36:55.156Z,99515.19
2019-02-09T08:39:58.144Z,99517.41
2019-02-09T08:43:00.154Z,99513.10
2019-02-09T08:46:02.197Z,99525.66
2019-02-09T08:49:05.533Z,99514.70
2019-02-09T08:52:07.571Z,99515.01
2019-02-09T08:55:09.458Z,99519.06
2019-02-09T08:58:11.411Z,99532.98
2019-02-09T09:01:13.471Z,99516.34
2019-02-09T09:04:15.438Z,99531.11
2019-02-09T09:07:17.341Z,99519.39
2019-02-09T09:10:28.028Z,99514.53
2019-02-09T09:13:30.008Z,99497.87
2019-02-09T09:16:31.953Z,99501.11
2019-02-09T09:19:33.875Z,99532.95
2019-02-09T09:22:35.787Z,99530.47
2019-02-09T09:25:37.649Z,99526.64
2019-02-09T09:28:39.605Z,99515.73
2019-02-09T09:31:41.494Z,99516.58
2019-02-09T09:34:43.378Z,99506.98
2019-02-09T09:37:45.256Z,99516.23
2019-02-09T09:40:47.260Z,99510.55
2019-02-09T09:43:49.172Z,99498.82
2019-02-09T09:46:51.177Z,99517.64
2019-02-09T09:49:53.149Z,99491.73
2019-02-09T09:52:55.042Z,99489.56
2019-02-09T09:55:56.977Z,99493.67
2019-02-09T09:58:58.937Z,99499.72
2019-02-09T10:02:02.175Z,99507.42
2019-02-09T10:05:06.954Z,99513.73
2019-02-09T10:08:08.955Z,99487.50
2019-02-09T10:11:10.940Z,99481.78
2019-02-09T10:14:12.940Z,99497.91
2019-02-09T10:17:15.230Z,99497.61
2019-02-09T10:20:19.118Z,99496.52
2019-02-09T10:23:21.043Z,99487.49
2019-02-09T10:26:22.947Z,99510.73
2019-02-09T10:29:24.868Z,99520.31
2019-02-09T10:32:26.818Z,99532.11
2019-02-09T10:35:28.976Z,99539.48
2019-02-09T10:38:30.902Z,99541.38
2019-02-09T10:41:32.860Z,99539.74
2019-02-09T10:44:34.820Z,99541.95
2019-02-09T10:47:37.435Z,99549.88
2019-02-09T10:50:45.656Z,99548.77
2019-02-09T10:53:47.609Z,99561.34
2019-02-09T10:56:49.535Z,99569.27
2019-02-09T10:59:51.516Z,99573.05
2019-02-09T11:02:53.441Z,99601.70
2019-02-09T11:05:55.486Z,99592.15
2019-02-09T11:08:57.376Z,99585.73
2019-02-09T11:11:59.444Z,99591.45
2019-02-09T11:15:01.472Z,99586.64
2019-02-09T11:18:05.054Z,99585.16
2019-02-09T11:21:06.954Z,99597.29
2019-02-09T11:24:08.872Z,99595.89
2019-02-09T11:27:11.307Z,99588.19
2019-02-09T11:30:22.582Z,99591.25
2019-02-09T11:33:24.677Z,99611.33
2019-02-09T11:36:26.565Z,99607.22
2019-02-09T11:39:28.463Z,99607.82
2019-02-09T11:42:30.426Z,99607.83
2019-02-09T11:45:35.171Z,99607.27
2019-02-09T11:48:37.704Z,99590.84
2019-02-09T11:51:39.724Z,99580.43
2019-02-09T11:54:41.655Z,99577.99
2019-02-09T11:57:43.633Z,99571.41
2019-02-09T12:00:48.717Z,99566.20
2019-02-09T12:03:50.623Z,99555.48
2019-02-09T12:06:52.575Z,99555.73
2019-02-09T12:09:54.466Z,99545.61
2019-02-09T12:12:56.616Z,99548.08
2019-02-09T12:15:58.721Z,99557.41
2019-02-09T12:19:00.680Z,99557.91
2019-02-09T12:22:03.207Z,99551.07
2019-02-09T12:25:08.771Z,99571.05
2019-02-09T12:28:12.409Z,99574.89
2019-02-09T12:31:14.348Z,99572.97
2019-02-09T12:34:16.278Z,99572.41
2019-02-09T12:37:18.193Z,99577.56
2019-02-09T12:40:26.189Z,99582.77
2019-02-09T12:43:28.349Z,99584.95
2019-02-09T12:46:30.445Z,99576.16
2019-02-09T12:49:33.033Z,99584.61
2019-02-09T12:52:34.952Z,99586.77
2019-02-09T12:55:36.825Z,99585.33
2019-02-09T12:58:38.745Z,99582.55
2019-02-09T13:01:40.631Z,99575.72
2019-02-09T13:04:42.555Z,99576.28
2019-02-09T13:07:44.656Z,99568.36
2019-02-09T13:10:46.590Z,99583.38
2019-02-09T13:13:48.553Z,99586.96
2019-02-09T13:16:50.637Z,99591.58
2019-02-09T13:19:52.592Z,99602.19
2019-02-09T13:22:55.217Z,99602.12
2019-02-09T13:25:57.143Z,99597.28
2019-02-09T13:28:59.088Z,99615.48
2019-02-09T13:32:01.069Z,99613.98
2019-02-09T13:35:04.946Z,99621.09
2019-02-09T13:38:07.081Z,99626.27
2019-02-09T13:41:09.202Z,99624.25
2019-02-09T13:44:11.270Z,99614.21
2019-02-09T13:47:13.251Z,99624.28
2019-02-09T13:50:25.040Z,99619.08
2019-02-09T13:53:28.402Z,99622.53
2019-02-09T13:56:30.352Z,99624.82
2019-02-09T13:59:32.248Z,99630.91
2019-02-09T14:02:34.230Z,99635.02
2019-02-09T14:05:36.241Z,99629.94
2019-02-09T14:08:38.200Z,99620.47
2019-02-09T14:11:40.053Z,99617.03
2019-02-09T14:14:42.058Z,99625.66
2019-02-09T14:17:44.038Z,99619.44
2019-02-09T14:20:45.992Z,99614.03
2019-02-09T14:23:47.888Z,99617.37
2019-02-09T14:26:49.883Z,99614.95
2019-02-09T14:29:51.811Z,99616.09
2019-02-09T14:32:54.141Z,99615.56
2019-02-09T14:35:55.999Z,99622.19
2019-02-09T14:38:57.935Z,99626.31
2019-02-09T14:41:59.865Z,99630.73
2019-02-09T14:45:02.003Z,99635.09
2019-02-09T14:48:03.981Z,99635.95
2019-02-09T14:51:05.910Z,99639.25
2019-02-09T14:54:07.912Z,99638.45
2019-02-09T14:57:09.838Z,99648.59
2019-02-09T15:00:17.689Z,99645.30
2019-02-09T15:03:25.969Z,99648.85
2019-02-09T15:06:23.595Z,99654.38
2019-02-09T15:09:25.555Z,99638.77
2019-02-09T15:12:27.482Z,99646.97
2019-02-09T15:15:35.908Z,99656.00
2019-02-09T15:18:37.890Z,99658.73
2019-02-09T15:21:39.824Z,99655.73
2019-02-09T15:24:41.755Z,99662.84
2019-02-09T15:27:43.667Z,99650.54
2019-02-09T15:30:46.655Z,99651.08
2019-02-09T15:33:48.632Z,99646.70
2019-02-09T15:36:50.541Z,99657.36
2019-02-09T15:39:52.467Z,99658.69
2019-02-09T15:42:54.350Z,99669.33
2019-02-09T15:45:56.292Z,99669.30
2019-02-09T15:48:58.206Z,99667.63
2019-02-09T15:52:00.140Z,99668.66
2019-02-09T15:55:04.693Z,99671.38
2019-02-09T15:58:06.662Z,99681.45
2019-02-09T16:01:08.545Z,99694.77
2019-02-09T16:04:17.696Z,99695.78
2019-02-09T16:07:16.021Z,99699.81
2019-02-09T16:10:20.505Z,99705.53
2019-02-09T16:13:22.413Z,99703.30
2019-02-09T16:16:24.366Z,99709.49
2019-02-09T16:19:26.389Z,99713.97
2019-02-09T16:22:28.324Z,99709.75
2019-02-09T16:25:30.467Z,99719.44
2019-02-09T16:28:32.330Z,99717.91
2019-02-09T16:31:35.976Z,99723.33
2019-02-09T16:34:38.118Z,99723.05
2019-02-09T16:37:40.045Z,99721.97
2019-02-09T16:40:41.911Z,99718.99
2019-02-09T16:43:43.820Z,99721.17
2019-02-09T16:46:45.810Z,99722.27
2019-02-09T16:49:49.547Z,99717.33
2019-02-09T16:52:52.774Z,99719.51
2019-02-09T16:55:55.094Z,99718.45
2019-02-09T16:58:57.060Z,99721.75
2019-02-09T17:01:59.102Z,99732.11
2019-02-09T17:05:01.033Z,99738.66
2019-02-09T17:08:05.287Z,99738.92
2019-02-09T17:11:07.831Z,99735.41
2019-02-09T17:14:09.816Z,99734.56
2019-02-09T17:17:11.775Z,99740.32
2019-02-09T17:20:14.700Z,99738.53
2019-02-09T17:23:16.596Z,99744.59
2019-02-09T17:26:19.822Z,99745.95
2019-02-09T17:29:21.860Z,99751.70
2019-02-09T17:32:23.858Z,99747.94
2019-02-09T17:35:26.998Z,99754.52
2019-02-09T17:38:31.098Z,99755.03
2019-02-09T17:41:34.906Z,99767.55
2019-02-09T17:44:38.987Z,99761.00
2019-02-09T17:47:41.000Z,99762.04
2019-02-09T17:50:42.920Z,99756.28
2019-02-09T17:53:44.960Z,99757.25
2019-02-09T17:56:46.933Z,99765.44
2019-02-09T17:59:48.935Z,99759.95
2019-02-09T18:02:50.788Z,99764.02
2019-02-09T18:05:52.792Z,99767.28
2019-02-09T18:08:55.873Z,99771.67
2019-02-09T18:11:57.842Z,99768.44
2019-02-09T18:15:01.606Z,99773.92
2019-02-09T18:18:04.581Z,99773.73
2019-02-09T18:21:08.352Z,99773.52
2019-02-09T18:24:10.282Z,99775.43
2019-02-09T18:27:12.158Z,99780.61
2019-02-09T18:30:26.221Z,99788.22
2019-02-09T18:33:31.044Z,99790.43
2019-02-09T18:36:33.033Z,99779.25
2019-02-09T18:39:34.885Z,99790.95
2019-02-09T18:42:36.879Z,99795.61
2019-02-09T18:45:39.128Z,99793.70
2019-02-09T18:48:41.470Z,99789.31
2019-02-09T18:51:43.393Z,99786.64
2019-02-09T18:54:45.350Z,99783.16
2019-02-09T18:57:48.703Z,99778.73
2019-02-09T19:00:50.842Z,99786.01
2019-02-09T19:03:53.163Z,99789.25
2019-02-09T19:06:55.058Z,99783.55
2019-02-09T19:09:58.165Z,99785.73
2019-02-09T19:13:00.152Z,99795.28
2019-02-09T19:16:02.033Z,99798.52
2019-02-09T19:19:05.122Z,99798.95
2019-02-09T19:22:07.205Z,99799.84
2019-02-09T19:25:13.085Z,99802.33
2019-02-09T19:28:15.119Z,99800.31
2019-02-09T19:31:23.116Z,99798.28
2019-02-09T19:34:25.046Z,99788.03
2019-02-09T19:37:26.953Z,99787.55
2019-02-09T19:40:28.949Z,99787.36
2019-02-09T19:43:33.928Z,99788.42
2019-02-09T19:46:37.404Z,99781.79
2019-02-09T19:49:39.724Z,99797.28
2019-02-09T19:52:42.752Z,99799.38
2019-02-09T19:55:44.671Z,99794.92
2019-02-09T19:58:46.924Z,99796.48
2019-02-09T20:01:49.258Z,99794.89
2019-02-09T20:04:51.639Z,99790.04
2019-02-09T20:07:55.549Z,99793.55
2019-02-09T20:10:57.677Z,99786.73
2019-02-09T20:13:59.622Z,99791.98
2019-02-09T20:17:01.996Z,99787.16
2019-02-09T20:20:09.758Z,99785.01
2019-02-09T20:23:12.429Z,99789.40
2019-02-09T20:26:16.139Z,99784.25
2019-02-09T20:29:18.168Z,99789.38
2019-02-09T20:32:20.412Z,99785.49
2019-02-09T20:35:27.870Z,99787.04
2019-02-09T20:38:28.108Z,99785.58
2019-02-09T20:41:31.557Z,99794.06
2019-02-09T20:44:35.121Z,99794.67
2019-02-09T20:47:39.381Z,99790.58
2019-02-09T20:50:42.699Z,99796.89
2019-02-09T20:53:44.659Z,99800.73
2019-02-09T20:56:46.578Z,99792.31
2019-02-09T20:59:48.841Z,99793.67
2019-02-09T21:02:51.454Z,99789.83
2019-02-09T21:05:54.919Z,99798.55
2019-02-09T21:08:58.083Z,99800.40
2019-02-09T21:12:00.044Z,99797.58
2019-02-09T21:15:01.955Z,99800.21
2019-02-09T21:18:06.363Z,99802.05
2019-02-09T21:21:08.311Z,99804.53
2019-02-09T21:24:10.833Z,99809.14
2019-02-09T21:27:14.258Z,99818.34
2019-02-09T21:30:20.822Z,99814.42
2019-02-09T21:33:22.863Z,99819.52
2019-02-09T21:36:25.207Z,99810.34
2019-02-09T21:39:33.892Z,99815.67
2019-02-09T21:42:33.502Z,99808.13
2019-02-09T21:45:44.582Z,99817.80
2019-02-09T21:48:41.122Z,99814.50
2019-02-09T21:51:43.414Z,99807.83
2019-02-09T21:54:45.371Z,99812.42
2019-02-09T21:57:49.167Z,99812.33
2019-02-09T22:00:55.674Z,99812.55
2019-02-09T22:03:58.959Z,99806.80
2019-02-09T22:07:00.908Z,99800.81
2019-02-09T22:10:06.507Z,99808.97
2019-02-09T22:13:08.441Z,99806.30
2019-02-09T22:16:11.483Z,99804.98
2019-02-09T22:19:13.444Z,99812.33
2019-02-09T22:22:15.422Z,99811.28
2019-02-09T22:25:25.711Z,99806.39
2019-02-09T22:28:27.644Z,99804.02
2019-02-09T22:31:29.570Z,99813.00
2019-02-09T22:34:31.894Z,99814.05
2019-02-09T22:37:33.926Z,99813.00
2019-02-09T22:40:40.463Z,99825.03
2019-02-09T22:43:42.370Z,99822.08
2019-02-09T22:46:44.345Z,99818.81
2019-02-09T22:49:46.246Z,99821.98
2019-02-09T22:52:48.327Z,99822.81
2019-02-09T22:55:50.189Z,99828.25
2019-02-09T22:58:52.101Z,99833.51
2019-02-09T23:01:54.067Z,99839.14
2019-02-09T23:04:56.294Z,99838.00
2019-02-09T23:07:58.242Z,99850.67
2019-02-09T23:11:00.186Z,99856.80
2019-02-09T23:14:02.112Z,99858.09
2019-02-09T23:17:03.988Z,99860.51
2019-02-09T23:20:07.418Z,99860.02
2019-02-09T23:23:09.392Z,99865.81
2019-02-09T23:26:12.254Z,99869.14
2019-02-09T23:29:14.136Z,99868.36
2019-02-09T23:32:16.052Z,99863.41
2019-02-09T23:35:17.938Z,99867.23
2019-02-09T23:38:19.936Z,99862.66
2019-02-09T23:41:21.877Z,99862.42
2019-02-09T23:44:23.799Z,99861.60
2019-02-09T23:47:25.751Z,99866.14
2019-02-09T23:50:27.743Z,99861.47
2019-02-09T23:53:29.729Z,99870.72
2019-02-09T23:56:31.783Z,99866.54
2019-02-09T23:59:33.638Z,99864.59
